sensor_id;sensor_type;location;lat;lon;timestamp;temperature;humidity
40638;DHT22;26336;44.696;10.622;2022-12-07T00:02:21;7.90;99.90
40638;DHT22;26336;44.696;10.622;2022-12-07T00:05:25;7.80;99.90
40638;DHT22;26336;44.696;10.622;2022-12-07T00:08:30;7.80;99.90
40638;DHT22;26336;44.696;10.622;2022-12-07T00:11:34;7.70;99.90
40638;DHT22;26336;44.696;10.622;2022-12-07T00:14:38;7.70;99.90
40638;DHT22;26336;44.696;10.622;2022-12-07T00:17:42;7.70;99.90
40638;DHT22;26336;44.696;10.622;2022-12-07T00:20:46;7.70;99.90
40638;DHT22;26336;44.696;10.622;2022-12-07T00:23:52;7.80;99.90
40638;DHT22;26336;44.696;10.622;2022-12-07T00:26:56;7.80;99.90
40638;DHT22;26336;44.696;10.622;2022-12-07T00:30:00;7.80;99.90
40638;DHT22;26336;44.696;10.622;2022-12-07T00:33:04;7.80;99.90
40638;DHT22;26336;44.696;10.622;2022-12-07T00:36:10;7.70;99.90
40638;DHT22;26336;44.696;10.622;2022-12-07T00:39:17;7.70;99.90
40638;DHT22;26336;44.696;10.622;2022-12-07T00:42:21;7.70;99.90
40638;DHT22;26336;44.696;10.622;2022-12-07T00:45:25;7.70;99.90
40638;DHT22;26336;44.696;10.622;2022-12-07T00:48:29;7.70;99.90
40638;DHT22;26336;44.696;10.622;2022-12-07T00:51:33;7.70;99.90
40638;DHT22;26336;44.696;10.622;2022-12-07T00:54:37;7.70;99.90
40638;DHT22;26336;44.696;10.622;2022-12-07T00:57:41;7.70;99.90
40638;DHT22;26336;44.696;10.622;2022-12-07T01:00:45;7.60;99.90
40638;DHT22;26336;44.696;10.622;2022-12-07T01:03:49;7.60;99.90
40638;DHT22;26336;44.696;10.622;2022-12-07T01:06:53;7.60;99.90
40638;DHT22;26336;44.696;10.622;2022-12-07T01:09:57;7.60;99.90
40638;DHT22;26336;44.696;10.622;2022-12-07T01:13:01;7.60;99.90
40638;DHT22;26336;44.696;10.622;2022-12-07T01:16:06;7.60;99.90
40638;DHT22;26336;44.696;10.622;2022-12-07T01:19:10;7.60;99.90
40638;DHT22;26336;44.696;10.622;2022-12-07T01:22:14;7.60;99.90
40638;DHT22;26336;44.696;10.622;2022-12-07T01:25:18;7.60;99.90
40638;DHT22;26336;44.696;10.622;2022-12-07T01:28:22;7.70;99.90
40638;DHT22;26336;44.696;10.622;2022-12-07T01:31:27;7.70;99.90
40638;DHT22;26336;44.696;10.622;2022-12-07T01:34:31;7.60;99.90
40638;DHT22;26336;44.696;10.622;2022-12-07T01:37:37;7.70;99.90
40638;DHT22;26336;44.696;10.622;2022-12-07T01:40:41;7.70;99.90
40638;DHT22;26336;44.696;10.622;2022-12-07T01:44:15;7.70;99.90
40638;DHT22;26336;44.696;10.622;2022-12-07T01:47:19;7.70;99.90
40638;DHT22;26336;44.696;10.622;2022-12-07T01:50:23;7.70;99.90
40638;DHT22;26336;44.696;10.622;2022-12-07T01:53:29;7.70;99.90
40638;DHT22;26336;44.696;10.622;2022-12-07T01:56:34;7.70;99.90
40638;DHT22;26336;44.696;10.622;2022-12-07T01:59:38;7.70;99.90
40638;DHT22;26336;44.696;10.622;2022-12-07T02:02:53;7.70;99.90
40638;DHT22;26336;44.696;10.622;2022-12-07T02:05:59;7.70;99.90
40638;DHT22;26336;44.696;10.622;2022-12-07T02:09:04;7.70;99.90
40638;DHT22;26336;44.696;10.622;2022-12-07T02:12:08;7.70;99.90
40638;DHT22;26336;44.696;10.622;2022-12-07T02:15:12;7.70;99.90
40638;DHT22;26336;44.696;10.622;2022-12-07T02:29:17;7.60;99.90
40638;DHT22;26336;44.696;10.622;2022-12-07T02:32:33;7.60;99.90
40638;DHT22;26336;44.696;10.622;2022-12-07T02:35:51;7.60;99.90
40638;DHT22;26336;44.696;10.622;2022-12-07T02:39:01;7.60;99.90
40638;DHT22;26336;44.696;10.622;2022-12-07T02:42:14;7.70;99.90
40638;DHT22;26336;44.696;10.622;2022-12-07T02:45:21;7.70;99.90
40638;DHT22;26336;44.696;10.622;2022-12-07T02:48:27;7.70;99.90
40638;DHT22;26336;44.696;10.622;2022-12-07T02:51:32;7.80;99.90
40638;DHT22;26336;44.696;10.622;2022-12-07T02:54:36;7.80;99.90
40638;DHT22;26336;44.696;10.622;2022-12-07T03:02:06;7.80;99.90
40638;DHT22;26336;44.696;10.622;2022-12-07T03:05:13;7.80;99.90
40638;DHT22;26336;44.696;10.622;2022-12-07T03:08:43;7.80;99.90
40638;DHT22;26336;44.696;10.622;2022-12-07T03:11:51;7.80;99.90
40638;DHT22;26336;44.696;10.622;2022-12-07T03:15:17;7.70;99.90
40638;DHT22;26336;44.696;10.622;2022-12-07T03:18:25;7.70;99.90
40638;DHT22;26336;44.696;10.622;2022-12-07T03:21:34;7.70;99.90
40638;DHT22;26336;44.696;10.622;2022-12-07T03:24:47;7.70;99.90
40638;DHT22;26336;44.696;10.622;2022-12-07T03:27:56;7.70;99.90
40638;DHT22;26336;44.696;10.622;2022-12-07T03:31:22;7.70;99.90
40638;DHT22;26336;44.696;10.622;2022-12-07T03:34:34;7.70;99.90
40638;DHT22;26336;44.696;10.622;2022-12-07T03:37:53;7.70;99.90
40638;DHT22;26336;44.696;10.622;2022-12-07T03:41:07;7.70;99.90
40638;DHT22;26336;44.696;10.622;2022-12-07T03:44:13;7.70;99.90
40638;DHT22;26336;44.696;10.622;2022-12-07T03:50:35;7.70;99.90
40638;DHT22;26336;44.696;10.622;2022-12-07T03:53:46;7.70;99.90
40638;DHT22;26336;44.696;10.622;2022-12-07T03:56:54;7.70;99.90
40638;DHT22;26336;44.696;10.622;2022-12-07T03:59:59;7.70;99.90
40638;DHT22;26336;44.696;10.622;2022-12-07T04:03:04;7.70;99.90
40638;DHT22;26336;44.696;10.622;2022-12-07T04:06:08;7.70;99.90
40638;DHT22;26336;44.696;10.622;2022-12-07T04:09:11;7.70;99.90
40638;DHT22;26336;44.696;10.622;2022-12-07T04:12:18;7.70;99.90
40638;DHT22;26336;44.696;10.622;2022-12-07T04:15:22;7.70;99.90
40638;DHT22;26336;44.696;10.622;2022-12-07T04:18:26;7.70;99.90
40638;DHT22;26336;44.696;10.622;2022-12-07T04:21:30;7.70;99.90
40638;DHT22;26336;44.696;10.622;2022-12-07T04:24:34;7.70;99.90
40638;DHT22;26336;44.696;10.622;2022-12-07T04:27:38;7.70;99.90
40638;DHT22;26336;44.696;10.622;2022-12-07T04:30:42;7.70;99.90
40638;DHT22;26336;44.696;10.622;2022-12-07T04:33:46;7.70;99.90
40638;DHT22;26336;44.696;10.622;2022-12-07T04:36:49;7.70;99.90
40638;DHT22;26336;44.696;10.622;2022-12-07T04:39:53;7.70;99.90
40638;DHT22;26336;44.696;10.622;2022-12-07T04:42:57;7.70;99.90
40638;DHT22;26336;44.696;10.622;2022-12-07T04:46:01;7.70;99.90
40638;DHT22;26336;44.696;10.622;2022-12-07T04:49:05;7.70;99.90
40638;DHT22;26336;44.696;10.622;2022-12-07T04:52:09;7.70;99.90
40638;DHT22;26336;44.696;10.622;2022-12-07T04:55:13;7.70;99.90
40638;DHT22;26336;44.696;10.622;2022-12-07T04:58:17;7.60;99.90
40638;DHT22;26336;44.696;10.622;2022-12-07T05:01:22;7.70;99.90
40638;DHT22;26336;44.696;10.622;2022-12-07T05:04:25;7.70;99.90
40638;DHT22;26336;44.696;10.622;2022-12-07T05:07:29;7.60;99.90
40638;DHT22;26336;44.696;10.622;2022-12-07T05:10:33;7.60;99.90
40638;DHT22;26336;44.696;10.622;2022-12-07T05:13:37;7.60;99.90
40638;DHT22;26336;44.696;10.622;2022-12-07T05:16:42;7.60;99.90
40638;DHT22;26336;44.696;10.622;2022-12-07T05:19:46;7.60;99.90
40638;DHT22;26336;44.696;10.622;2022-12-07T05:22:51;7.60;99.90
40638;DHT22;26336;44.696;10.622;2022-12-07T05:25:55;7.60;99.90
40638;DHT22;26336;44.696;10.622;2022-12-07T05:28:59;7.60;99.90
40638;DHT22;26336;44.696;10.622;2022-12-07T05:32:03;7.60;99.90
40638;DHT22;26336;44.696;10.622;2022-12-07T05:35:07;7.50;99.90
40638;DHT22;26336;44.696;10.622;2022-12-07T05:38:11;7.50;99.90
40638;DHT22;26336;44.696;10.622;2022-12-07T05:41:17;7.50;99.90
40638;DHT22;26336;44.696;10.622;2022-12-07T05:44:41;7.50;99.90
40638;DHT22;26336;44.696;10.622;2022-12-07T05:47:45;7.50;99.90
40638;DHT22;26336;44.696;10.622;2022-12-07T05:50:50;7.50;99.90
40638;DHT22;26336;44.696;10.622;2022-12-07T05:53:54;7.50;99.90
40638;DHT22;26336;44.696;10.622;2022-12-07T05:56:57;7.50;99.90
40638;DHT22;26336;44.696;10.622;2022-12-07T06:00:02;7.50;99.90
40638;DHT22;26336;44.696;10.622;2022-12-07T06:03:16;7.50;99.90
40638;DHT22;26336;44.696;10.622;2022-12-07T06:06:19;7.50;99.90
40638;DHT22;26336;44.696;10.622;2022-12-07T06:09:24;7.50;99.90
40638;DHT22;26336;44.696;10.622;2022-12-07T06:12:28;7.50;99.90
40638;DHT22;26336;44.696;10.622;2022-12-07T06:15:38;7.50;99.90
40638;DHT22;26336;44.696;10.622;2022-12-07T06:18:42;7.50;99.90
40638;DHT22;26336;44.696;10.622;2022-12-07T06:21:45;7.50;99.90
40638;DHT22;26336;44.696;10.622;2022-12-07T06:24:49;7.50;99.90
40638;DHT22;26336;44.696;10.622;2022-12-07T06:27:53;7.50;99.90
40638;DHT22;26336;44.696;10.622;2022-12-07T06:31:02;7.50;99.90
40638;DHT22;26336;44.696;10.622;2022-12-07T06:34:12;7.40;99.90
40638;DHT22;26336;44.696;10.622;2022-12-07T06:37:17;7.40;99.90
40638;DHT22;26336;44.696;10.622;2022-12-07T06:40:21;7.50;99.90
40638;DHT22;26336;44.696;10.622;2022-12-07T06:43:25;7.50;99.90
40638;DHT22;26336;44.696;10.622;2022-12-07T06:46:29;7.40;99.90
40638;DHT22;26336;44.696;10.622;2022-12-07T06:49:35;7.40;99.90
40638;DHT22;26336;44.696;10.622;2022-12-07T06:52:39;7.40;99.90
40638;DHT22;26336;44.696;10.622;2022-12-07T06:55:43;7.40;99.90
40638;DHT22;26336;44.696;10.622;2022-12-07T06:58:47;7.40;99.90
40638;DHT22;26336;44.696;10.622;2022-12-07T07:01:51;7.40;99.90
40638;DHT22;26336;44.696;10.622;2022-12-07T07:04:56;7.40;99.90
40638;DHT22;26336;44.696;10.622;2022-12-07T07:08:00;7.40;99.90
40638;DHT22;26336;44.696;10.622;2022-12-07T07:11:04;7.40;99.90
40638;DHT22;26336;44.696;10.622;2022-12-07T07:14:09;7.40;99.90
40638;DHT22;26336;44.696;10.622;2022-12-07T07:17:13;7.40;99.90
40638;DHT22;26336;44.696;10.622;2022-12-07T07:20:17;7.40;99.90
40638;DHT22;26336;44.696;10.622;2022-12-07T07:23:22;7.40;99.90
40638;DHT22;26336;44.696;10.622;2022-12-07T07:26:26;7.40;99.90
40638;DHT22;26336;44.696;10.622;2022-12-07T07:29:30;7.40;99.90
40638;DHT22;26336;44.696;10.622;2022-12-07T07:32:34;7.40;99.90
40638;DHT22;26336;44.696;10.622;2022-12-07T07:35:38;7.40;99.90
40638;DHT22;26336;44.696;10.622;2022-12-07T07:38:42;7.40;99.90
40638;DHT22;26336;44.696;10.622;2022-12-07T07:41:46;7.40;99.90
40638;DHT22;26336;44.696;10.622;2022-12-07T07:45:01;7.40;99.90
40638;DHT22;26336;44.696;10.622;2022-12-07T07:48:05;7.40;99.90
40638;DHT22;26336;44.696;10.622;2022-12-07T07:51:09;7.40;99.90
40638;DHT22;26336;44.696;10.622;2022-12-07T07:54:12;7.40;99.90
40638;DHT22;26336;44.696;10.622;2022-12-07T07:57:17;7.40;99.90
40638;DHT22;26336;44.696;10.622;2022-12-07T08:00:22;7.50;99.90
40638;DHT22;26336;44.696;10.622;2022-12-07T08:03:25;7.40;99.90
40638;DHT22;26336;44.696;10.622;2022-12-07T08:06:29;7.40;99.90
40638;DHT22;26336;44.696;10.622;2022-12-07T08:09:33;7.50;99.90
40638;DHT22;26336;44.696;10.622;2022-12-07T08:12:42;7.50;99.90
40638;DHT22;26336;44.696;10.622;2022-12-07T08:16:07;7.50;99.90
40638;DHT22;26336;44.696;10.622;2022-12-07T08:19:12;7.50;99.90
40638;DHT22;26336;44.696;10.622;2022-12-07T08:22:16;7.60;99.90
40638;DHT22;26336;44.696;10.622;2022-12-07T08:25:20;7.60;99.90
40638;DHT22;26336;44.696;10.622;2022-12-07T08:28:25;7.60;99.90
40638;DHT22;26336;44.696;10.622;2022-12-07T08:31:29;7.60;99.90
40638;DHT22;26336;44.696;10.622;2022-12-07T08:34:33;7.60;99.90
40638;DHT22;26336;44.696;10.622;2022-12-07T08:37:37;7.60;99.90
40638;DHT22;26336;44.696;10.622;2022-12-07T08:40:41;7.70;99.90
40638;DHT22;26336;44.696;10.622;2022-12-07T08:43:46;7.70;99.90
40638;DHT22;26336;44.696;10.622;2022-12-07T08:46:54;7.70;99.90
40638;DHT22;26336;44.696;10.622;2022-12-07T08:50:01;7.70;99.90
40638;DHT22;26336;44.696;10.622;2022-12-07T08:53:07;7.70;99.90
40638;DHT22;26336;44.696;10.622;2022-12-07T08:56:11;7.80;99.90
40638;DHT22;26336;44.696;10.622;2022-12-07T08:59:17;7.80;99.90
40638;DHT22;26336;44.696;10.622;2022-12-07T09:02:21;7.80;99.90
40638;DHT22;26336;44.696;10.622;2022-12-07T09:05:25;7.80;99.90
40638;DHT22;26336;44.696;10.622;2022-12-07T09:08:42;7.80;99.90
40638;DHT22;26336;44.696;10.622;2022-12-07T09:11:47;7.80;99.90
40638;DHT22;26336;44.696;10.622;2022-12-07T09:14:52;7.90;99.90
40638;DHT22;26336;44.696;10.622;2022-12-07T09:17:56;7.90;99.90
40638;DHT22;26336;44.696;10.622;2022-12-07T09:21:00;7.90;99.90
40638;DHT22;26336;44.696;10.622;2022-12-07T09:24:04;7.90;99.90
40638;DHT22;26336;44.696;10.622;2022-12-07T09:27:07;8.00;99.90
40638;DHT22;26336;44.696;10.622;2022-12-07T09:30:12;8.10;99.90
40638;DHT22;26336;44.696;10.622;2022-12-07T09:33:16;8.10;99.90
40638;DHT22;26336;44.696;10.622;2022-12-07T09:36:19;8.00;99.90
40638;DHT22;26336;44.696;10.622;2022-12-07T09:39:23;8.00;99.90
40638;DHT22;26336;44.696;10.622;2022-12-07T09:42:36;8.00;99.90
40638;DHT22;26336;44.696;10.622;2022-12-07T09:45:44;8.00;99.90
40638;DHT22;26336;44.696;10.622;2022-12-07T09:48:50;8.00;99.90
40638;DHT22;26336;44.696;10.622;2022-12-07T09:52:19;8.00;99.90
40638;DHT22;26336;44.696;10.622;2022-12-07T09:55:27;8.00;99.90
40638;DHT22;26336;44.696;10.622;2022-12-07T09:58:33;8.00;99.90
40638;DHT22;26336;44.696;10.622;2022-12-07T10:01:39;8.10;99.90
40638;DHT22;26336;44.696;10.622;2022-12-07T10:04:43;8.10;99.90
40638;DHT22;26336;44.696;10.622;2022-12-07T10:07:48;8.10;99.90
40638;DHT22;26336;44.696;10.622;2022-12-07T10:10:54;8.10;99.90
40638;DHT22;26336;44.696;10.622;2022-12-07T10:14:12;8.10;99.90
40638;DHT22;26336;44.696;10.622;2022-12-07T10:20:30;8.10;99.90
40638;DHT22;26336;44.696;10.622;2022-12-07T10:23:36;8.20;99.90
40638;DHT22;26336;44.696;10.622;2022-12-07T10:29:51;8.20;99.90
40638;DHT22;26336;44.696;10.622;2022-12-07T10:32:56;8.20;99.90
40638;DHT22;26336;44.696;10.622;2022-12-07T10:36:01;8.20;99.90
40638;DHT22;26336;44.696;10.622;2022-12-07T10:39:22;8.20;99.90
40638;DHT22;26336;44.696;10.622;2022-12-07T10:42:31;8.20;99.90
40638;DHT22;26336;44.696;10.622;2022-12-07T11:05:56;8.40;99.90
40638;DHT22;26336;44.696;10.622;2022-12-07T11:09:30;8.40;99.90
40638;DHT22;26336;44.696;10.622;2022-12-07T11:22:57;8.60;99.90
40638;DHT22;26336;44.696;10.622;2022-12-07T11:33:13;8.70;99.90
40638;DHT22;26336;44.696;10.622;2022-12-07T11:39:51;8.80;99.90
40638;DHT22;26336;44.696;10.622;2022-12-07T11:43:05;8.90;99.90
40638;DHT22;26336;44.696;10.622;2022-12-07T11:46:15;8.90;99.90
40638;DHT22;26336;44.696;10.622;2022-12-07T11:49:44;8.90;99.90
40638;DHT22;26336;44.696;10.622;2022-12-07T11:59:47;9.00;99.90
40638;DHT22;26336;44.696;10.622;2022-12-07T12:03:40;9.00;99.90
40638;DHT22;26336;44.696;10.622;2022-12-07T12:06:18;8.80;99.90
40638;DHT22;26336;44.696;10.622;2022-12-07T12:09:30;8.90;99.90
40638;DHT22;26336;44.696;10.622;2022-12-07T12:13:13;8.90;99.90
40638;DHT22;26336;44.696;10.622;2022-12-07T12:27:17;9.00;99.90
40638;DHT22;26336;44.696;10.622;2022-12-07T12:30:38;9.00;99.90
40638;DHT22;26336;44.696;10.622;2022-12-07T12:33:44;9.10;99.90
40638;DHT22;26336;44.696;10.622;2022-12-07T12:36:49;9.10;99.90
40638;DHT22;26336;44.696;10.622;2022-12-07T12:43:48;9.10;99.90
40638;DHT22;26336;44.696;10.622;2022-12-07T12:50:26;9.00;99.90
40638;DHT22;26336;44.696;10.622;2022-12-07T12:53:31;9.00;99.90
40638;DHT22;26336;44.696;10.622;2022-12-07T13:00:21;9.00;99.90
40638;DHT22;26336;44.696;10.622;2022-12-07T13:03:30;8.90;99.90
40638;DHT22;26336;44.696;10.622;2022-12-07T13:06:36;8.90;99.90
40638;DHT22;26336;44.696;10.622;2022-12-07T13:09:44;8.80;99.90
40638;DHT22;26336;44.696;10.622;2022-12-07T13:22:58;8.60;99.90
40638;DHT22;26336;44.696;10.622;2022-12-07T13:29:26;8.60;99.90
40638;DHT22;26336;44.696;10.622;2022-12-07T13:32:30;8.60;99.90
40638;DHT22;26336;44.696;10.622;2022-12-07T13:35:36;8.50;99.90
40638;DHT22;26336;44.696;10.622;2022-12-07T13:38:55;8.50;99.90
40638;DHT22;26336;44.696;10.622;2022-12-07T13:41:59;8.50;99.90
40638;DHT22;26336;44.696;10.622;2022-12-07T13:45:30;8.50;99.90
40638;DHT22;26336;44.696;10.622;2022-12-07T13:48:53;8.50;99.90
40638;DHT22;26336;44.696;10.622;2022-12-07T13:55:28;8.50;99.90
40638;DHT22;26336;44.696;10.622;2022-12-07T13:58:33;8.50;99.90
40638;DHT22;26336;44.696;10.622;2022-12-07T14:01:37;8.60;99.90
40638;DHT22;26336;44.696;10.622;2022-12-07T14:04:41;8.60;99.90
40638;DHT22;26336;44.696;10.622;2022-12-07T14:08:05;8.60;99.90
40638;DHT22;26336;44.696;10.622;2022-12-07T14:11:17;8.50;99.90
40638;DHT22;26336;44.696;10.622;2022-12-07T14:14:26;8.50;99.90
40638;DHT22;26336;44.696;10.622;2022-12-07T14:17:31;8.50;99.90
40638;DHT22;26336;44.696;10.622;2022-12-07T14:20:39;8.40;99.90
40638;DHT22;26336;44.696;10.622;2022-12-07T14:23:43;8.40;99.90
40638;DHT22;26336;44.696;10.622;2022-12-07T14:26:49;8.40;99.90
40638;DHT22;26336;44.696;10.622;2022-12-07T14:29:53;8.40;99.90
40638;DHT22;26336;44.696;10.622;2022-12-07T14:33:00;8.40;99.90
40638;DHT22;26336;44.696;10.622;2022-12-07T14:36:04;8.40;99.90
40638;DHT22;26336;44.696;10.622;2022-12-07T14:39:08;8.30;99.90
40638;DHT22;26336;44.696;10.622;2022-12-07T14:42:12;8.40;99.90
40638;DHT22;26336;44.696;10.622;2022-12-07T14:45:22;8.30;99.90
40638;DHT22;26336;44.696;10.622;2022-12-07T14:48:26;8.30;99.90
40638;DHT22;26336;44.696;10.622;2022-12-07T14:51:30;8.30;99.90
40638;DHT22;26336;44.696;10.622;2022-12-07T14:54:34;8.30;99.90
40638;DHT22;26336;44.696;10.622;2022-12-07T14:57:38;8.20;99.90
40638;DHT22;26336;44.696;10.622;2022-12-07T15:00:42;8.30;99.90
40638;DHT22;26336;44.696;10.622;2022-12-07T15:03:46;8.20;99.90
40638;DHT22;26336;44.696;10.622;2022-12-07T15:07:03;8.10;99.90
40638;DHT22;26336;44.696;10.622;2022-12-07T15:10:19;8.10;99.90
40638;DHT22;26336;44.696;10.622;2022-12-07T15:13:23;8.00;99.90
40638;DHT22;26336;44.696;10.622;2022-12-07T15:16:45;8.00;99.90
40638;DHT22;26336;44.696;10.622;2022-12-07T15:19:49;8.00;99.90
40638;DHT22;26336;44.696;10.622;2022-12-07T15:22:53;7.90;99.90
40638;DHT22;26336;44.696;10.622;2022-12-07T15:25:57;7.80;99.90
40638;DHT22;26336;44.696;10.622;2022-12-07T15:29:01;7.80;99.90
40638;DHT22;26336;44.696;10.622;2022-12-07T15:32:05;7.70;99.90
40638;DHT22;26336;44.696;10.622;2022-12-07T15:35:09;7.70;99.90
40638;DHT22;26336;44.696;10.622;2022-12-07T15:38:13;7.60;99.90
40638;DHT22;26336;44.696;10.622;2022-12-07T15:41:17;7.60;99.90
40638;DHT22;26336;44.696;10.622;2022-12-07T15:44:21;7.50;99.90
40638;DHT22;26336;44.696;10.622;2022-12-07T15:47:44;7.50;99.90
40638;DHT22;26336;44.696;10.622;2022-12-07T15:50:48;7.40;99.90
40638;DHT22;26336;44.696;10.622;2022-12-07T15:53:53;7.40;99.90
40638;DHT22;26336;44.696;10.622;2022-12-07T15:56:57;7.40;99.90
40638;DHT22;26336;44.696;10.622;2022-12-07T16:00:01;7.40;99.90
40638;DHT22;26336;44.696;10.622;2022-12-07T16:03:07;7.30;99.90
40638;DHT22;26336;44.696;10.622;2022-12-07T16:06:12;7.30;99.90
40638;DHT22;26336;44.696;10.622;2022-12-07T16:09:15;7.30;99.90
40638;DHT22;26336;44.696;10.622;2022-12-07T16:12:19;7.30;99.90
40638;DHT22;26336;44.696;10.622;2022-12-07T16:15:23;7.20;99.90
40638;DHT22;26336;44.696;10.622;2022-12-07T16:18:29;7.20;99.90
40638;DHT22;26336;44.696;10.622;2022-12-07T16:21:34;7.20;99.90
40638;DHT22;26336;44.696;10.622;2022-12-07T16:24:39;7.10;99.90
40638;DHT22;26336;44.696;10.622;2022-12-07T16:27:42;7.10;99.90
40638;DHT22;26336;44.696;10.622;2022-12-07T16:30:47;7.10;99.90
40638;DHT22;26336;44.696;10.622;2022-12-07T16:33:53;7.10;99.90
40638;DHT22;26336;44.696;10.622;2022-12-07T16:36:58;7.10;99.90
40638;DHT22;26336;44.696;10.622;2022-12-07T16:40:02;7.10;99.90
40638;DHT22;26336;44.696;10.622;2022-12-07T16:43:06;7.10;99.90
40638;DHT22;26336;44.696;10.622;2022-12-07T16:46:10;7.10;99.90
40638;DHT22;26336;44.696;10.622;2022-12-07T16:49:15;7.00;99.90
40638;DHT22;26336;44.696;10.622;2022-12-07T16:52:20;7.00;99.90
40638;DHT22;26336;44.696;10.622;2022-12-07T16:55:24;6.90;99.90
40638;DHT22;26336;44.696;10.622;2022-12-07T16:58:28;6.90;99.90
40638;DHT22;26336;44.696;10.622;2022-12-07T17:01:32;6.90;99.90
40638;DHT22;26336;44.696;10.622;2022-12-07T17:04:37;6.90;99.90
40638;DHT22;26336;44.696;10.622;2022-12-07T17:07:45;6.90;99.90
40638;DHT22;26336;44.696;10.622;2022-12-07T17:10:49;6.90;99.90
40638;DHT22;26336;44.696;10.622;2022-12-07T17:13:54;6.80;99.90
40638;DHT22;26336;44.696;10.622;2022-12-07T17:17:16;6.80;99.90
40638;DHT22;26336;44.696;10.622;2022-12-07T17:20:21;6.80;99.90
40638;DHT22;26336;44.696;10.622;2022-12-07T17:23:26;6.80;99.90
40638;DHT22;26336;44.696;10.622;2022-12-07T17:26:30;6.80;99.90
40638;DHT22;26336;44.696;10.622;2022-12-07T17:29:34;6.80;99.90
40638;DHT22;26336;44.696;10.622;2022-12-07T17:32:39;6.80;99.90
40638;DHT22;26336;44.696;10.622;2022-12-07T17:35:43;6.80;99.90
40638;DHT22;26336;44.696;10.622;2022-12-07T17:38:48;6.70;99.90
40638;DHT22;26336;44.696;10.622;2022-12-07T17:41:52;6.70;99.90
40638;DHT22;26336;44.696;10.622;2022-12-07T17:45:15;6.80;99.90
40638;DHT22;26336;44.696;10.622;2022-12-07T17:48:19;6.80;99.90
40638;DHT22;26336;44.696;10.622;2022-12-07T17:51:24;6.80;99.90
40638;DHT22;26336;44.696;10.622;2022-12-07T17:54:46;6.70;99.90
40638;DHT22;26336;44.696;10.622;2022-12-07T17:57:50;6.70;99.90
40638;DHT22;26336;44.696;10.622;2022-12-07T18:00:55;6.70;99.90
40638;DHT22;26336;44.696;10.622;2022-12-07T18:03:59;6.70;99.90
40638;DHT22;26336;44.696;10.622;2022-12-07T18:07:03;6.70;99.90
40638;DHT22;26336;44.696;10.622;2022-12-07T18:10:09;6.70;99.90
40638;DHT22;26336;44.696;10.622;2022-12-07T18:13:14;6.70;99.90
40638;DHT22;26336;44.696;10.622;2022-12-07T18:16:36;6.70;99.90
40638;DHT22;26336;44.696;10.622;2022-12-07T18:19:40;6.70;99.90
40638;DHT22;26336;44.696;10.622;2022-12-07T18:22:44;6.70;99.90
40638;DHT22;26336;44.696;10.622;2022-12-07T18:25:52;6.70;99.90
40638;DHT22;26336;44.696;10.622;2022-12-07T18:28:58;6.70;99.90
40638;DHT22;26336;44.696;10.622;2022-12-07T18:32:03;6.70;99.90
40638;DHT22;26336;44.696;10.622;2022-12-07T18:35:08;6.70;99.90
40638;DHT22;26336;44.696;10.622;2022-12-07T18:38:16;6.60;99.90
40638;DHT22;26336;44.696;10.622;2022-12-07T18:41:20;6.60;99.90
40638;DHT22;26336;44.696;10.622;2022-12-07T18:44:24;6.60;99.90
40638;DHT22;26336;44.696;10.622;2022-12-07T18:47:29;6.60;99.90
40638;DHT22;26336;44.696;10.622;2022-12-07T18:50:34;6.60;99.90
40638;DHT22;26336;44.696;10.622;2022-12-07T18:53:38;6.60;99.90
40638;DHT22;26336;44.696;10.622;2022-12-07T18:56:42;6.60;99.90
40638;DHT22;26336;44.696;10.622;2022-12-07T18:59:46;6.60;99.90
40638;DHT22;26336;44.696;10.622;2022-12-07T19:02:51;6.60;99.90
40638;DHT22;26336;44.696;10.622;2022-12-07T19:05:56;6.50;99.90
40638;DHT22;26336;44.696;10.622;2022-12-07T19:09:01;6.50;99.90
40638;DHT22;26336;44.696;10.622;2022-12-07T19:12:05;6.50;99.90
40638;DHT22;26336;44.696;10.622;2022-12-07T19:15:11;6.50;99.90
40638;DHT22;26336;44.696;10.622;2022-12-07T19:18:15;6.40;99.90
40638;DHT22;26336;44.696;10.622;2022-12-07T19:21:19;6.40;99.90
40638;DHT22;26336;44.696;10.622;2022-12-07T19:24:23;6.50;99.90
40638;DHT22;26336;44.696;10.622;2022-12-07T19:27:27;6.40;99.90
40638;DHT22;26336;44.696;10.622;2022-12-07T19:30:32;6.40;99.90
40638;DHT22;26336;44.696;10.622;2022-12-07T19:33:37;6.40;99.90
40638;DHT22;26336;44.696;10.622;2022-12-07T19:36:41;6.40;99.90
40638;DHT22;26336;44.696;10.622;2022-12-07T19:39:46;6.40;99.90
40638;DHT22;26336;44.696;10.622;2022-12-07T19:42:51;6.30;99.90
40638;DHT22;26336;44.696;10.622;2022-12-07T19:45:55;6.30;99.90
40638;DHT22;26336;44.696;10.622;2022-12-07T19:48:59;6.20;99.90
40638;DHT22;26336;44.696;10.622;2022-12-07T19:52:06;6.20;99.90
40638;DHT22;26336;44.696;10.622;2022-12-07T19:55:10;6.20;99.90
40638;DHT22;26336;44.696;10.622;2022-12-07T19:58:15;6.20;99.90
40638;DHT22;26336;44.696;10.622;2022-12-07T20:01:19;6.20;99.90
40638;DHT22;26336;44.696;10.622;2022-12-07T20:04:29;6.20;99.90
40638;DHT22;26336;44.696;10.622;2022-12-07T20:07:33;6.20;99.90
40638;DHT22;26336;44.696;10.622;2022-12-07T20:10:41;6.20;99.90
40638;DHT22;26336;44.696;10.622;2022-12-07T20:13:45;6.20;99.90
40638;DHT22;26336;44.696;10.622;2022-12-07T20:16:49;6.20;99.90
40638;DHT22;26336;44.696;10.622;2022-12-07T20:19:53;6.20;99.90
40638;DHT22;26336;44.696;10.622;2022-12-07T20:22:57;6.20;99.90
40638;DHT22;26336;44.696;10.622;2022-12-07T20:26:04;6.10;99.90
40638;DHT22;26336;44.696;10.622;2022-12-07T20:29:11;6.10;99.90
40638;DHT22;26336;44.696;10.622;2022-12-07T20:32:17;6.10;99.90
40638;DHT22;26336;44.696;10.622;2022-12-07T20:35:21;6.00;99.90
40638;DHT22;26336;44.696;10.622;2022-12-07T20:38:33;6.10;99.90
40638;DHT22;26336;44.696;10.622;2022-12-07T20:41:38;6.00;99.90
40638;DHT22;26336;44.696;10.622;2022-12-07T20:45:01;6.10;99.90
40638;DHT22;26336;44.696;10.622;2022-12-07T20:48:06;6.10;99.90
40638;DHT22;26336;44.696;10.622;2022-12-07T20:51:10;6.10;99.90
40638;DHT22;26336;44.696;10.622;2022-12-07T20:54:14;6.10;99.90
40638;DHT22;26336;44.696;10.622;2022-12-07T20:57:18;6.10;99.90
40638;DHT22;26336;44.696;10.622;2022-12-07T21:00:22;6.00;99.90
40638;DHT22;26336;44.696;10.622;2022-12-07T21:03:26;6.00;99.90
40638;DHT22;26336;44.696;10.622;2022-12-07T21:06:31;6.00;99.90
40638;DHT22;26336;44.696;10.622;2022-12-07T21:09:34;6.00;99.90
40638;DHT22;26336;44.696;10.622;2022-12-07T21:12:38;6.00;99.90
40638;DHT22;26336;44.696;10.622;2022-12-07T21:15:42;6.00;99.90
40638;DHT22;26336;44.696;10.622;2022-12-07T21:18:47;5.90;99.90
40638;DHT22;26336;44.696;10.622;2022-12-07T21:21:51;5.90;99.90
40638;DHT22;26336;44.696;10.622;2022-12-07T21:24:55;5.90;99.90
40638;DHT22;26336;44.696;10.622;2022-12-07T21:27:59;5.90;99.90
40638;DHT22;26336;44.696;10.622;2022-12-07T21:31:03;5.90;99.90